Aérodrome :
LOGIN :

S'inscrire | Disclaimer

   EN    FR    IT 

 










Légende :    VFR   VFR Marginal   IFR   IFR Intensif   IFR Très Intensif
Visi : 
Plafond : 
>= 8 km
>= 3000ft
5 à 8 km
1000 à 3000 ft
1500m à 5 km
500 à 1000 ft
800 à 1500m
200 à 500 ft
< 800m
< 200 ft
Symboles :   Orages  Brouillard  Fortes neiges  Fortes précipitations  Vent > 20 kt
SIGMETs :   Divers  Orages  Givrage  Turbulence  Onde Orograph.  Cendres Volcan.






- Altitude de l'aérodrome : 147 ft
- Code IATA : DUS


EDDL - Düsseldorf Int.

DERNIER METAR :
  • 090950Z 16007KT 9999 SCT020 04/01 Q1005 NOSIG

METARs EXPIRÉS :
  • 090920Z 16008KT 9999 SCT020 03/01 Q1005 NOSIG
  • 090850Z 17009KT 9999 FEW038 02/01 Q1004 NOSIG
  • 090820Z 16008KT 9999 FEW038 01/00 Q1004 NOSIG
  • 090750Z 16007KT 9999 FEW038 01/M00 Q1004 NOSIG
  • 090720Z 17007KT CAVOK 01/M00 Q1004 NOSIG

TAF TAF EDDL
Valide du 09 à 06h jusqu'au 10 à 12h UTC


090500Z 0906/1012 18009KT 9999 SCT030
TEMPO 0915/0919 BKN013
BECMG 1000/1003 15014KT
TEMPO 1004/1012 15015G25KT
TEMPO 1008/1012 RA
PROB30
TEMPO 1009/1012 3000 RASN BKN010



MET'MAP, la Météo Aéronautique d'un coup d'oeil ! - Copyright ORBIFLY Décembre 2007 - Disclaimer

ORBIFLY MET'MAP TEAM :

Programmation & Développement : Alexandra Zaïnal
Sur une idée originale de : Baudouin d'Aumeries
Assistance à la programmation : Marc-Olivier Méhu
Soutien technique & logistique : Manuel Goepfert

Contact : metmap@orbifly.com




SOURCES & CREDITS :

   NOAA